Time;durP1;ratioP1;P1;durP2;ratioP2;P2;SDS_P1;SDS_P2;PMS_P1;PMS_P2;Temp;Humidity;BMP_temperature;BMP_pressure;BME280_temperature;BME280_humidity;BME280_pressure;Samples;Min_cycle;Max_cycle;Signal;HPM_P1;HPM_P2
2022/10/23 00:00:36;;;;;;;5.33;2.67;;;12.00;99.90;;;;;;5000245;28;20194;-82
2022/10/23 00:03:03;;;;;;;9.90;3.60;;;11.90;99.90;;;;;;5016350;28;20429;-82
2022/10/23 00:05:28;;;;;;;5.67;3.13;;;11.90;99.90;;;;;;5016223;28;20418;-83
2022/10/23 00:07:57;;;;;;;3.30;2.50;;;11.90;99.90;;;;;;5016585;28;20412;-83
2022/10/23 00:10:24;;;;;;;5.47;2.67;;;11.90;99.90;;;;;;5033800;28;20178;-82
2022/10/23 00:12:50;;;;;;;8.17;3.20;;;11.90;99.90;;;;;;5034089;28;20432;-82
2022/10/23 00:15:19;;;;;;;5.70;2.97;;;11.90;99.90;;;;;;5016379;28;20514;-83
2022/10/23 00:17:45;;;;;;;8.23;2.30;;;11.90;99.90;;;;;;5034081;28;20170;-83
2022/10/23 00:20:12;;;;;;;8.10;2.20;;;11.90;99.90;;;;;;5034058;28;20537;-83
2022/10/23 00:22:38;;;;;;;8.30;2.63;;;11.90;99.90;;;;;;5015692;28;20437;-83
2022/10/23 00:25:05;;;;;;;7.40;2.23;;;11.80;99.90;;;;;;5033185;28;20909;-82
2022/10/23 00:27:30;;;;;;;7.23;3.27;;;11.80;99.90;;;;;;5033490;28;20417;-83
2022/10/23 00:29:56;;;;;;;10.07;2.57;;;11.80;99.90;;;;;;5033583;28;20409;-83
2022/10/23 00:32:22;;;;;;;6.23;3.00;;;11.70;99.90;;;;;;4999628;28;20424;-83
2022/10/23 00:34:47;;;;;;;4.13;2.43;;;11.70;99.90;;;;;;5015860;28;20572;-84
2022/10/23 00:37:13;;;;;;;3.83;2.37;;;11.70;99.90;;;;;;5015436;28;20650;-84
2022/10/23 00:39:38;;;;;;;7.13;2.57;;;11.70;99.90;;;;;;5014946;28;20229;-84
2022/10/23 00:42:04;;;;;;;5.50;3.37;;;11.60;99.90;;;;;;5033205;28;20211;-84
2022/10/23 00:44:30;;;;;;;4.10;2.90;;;11.60;99.90;;;;;;5015216;28;20273;-83
2022/10/23 00:46:56;;;;;;;7.27;2.80;;;11.50;99.90;;;;;;5033346;28;20591;-86
2022/10/23 00:49:24;;;;;;;6.70;2.37;;;11.50;99.90;;;;;;5014839;28;20246;-85
2022/10/23 00:51:52;;;;;;;5.20;2.60;;;11.50;99.90;;;;;;4999129;28;20859;-85
2022/10/23 00:54:21;;;;;;;4.60;2.60;;;11.50;99.90;;;;;;5032761;28;20530;-84
2022/10/23 00:56:47;;;;;;;5.67;2.73;;;11.50;99.90;;;;;;5032810;28;20451;-83
2022/10/23 00:59:13;;;;;;;4.50;3.03;;;11.50;99.90;;;;;;5015614;28;20433;-84
2022/10/23 01:01:39;;;;;;;7.07;2.57;;;11.50;99.90;;;;;;5015363;28;20458;-84
2022/10/23 01:04:06;;;;;;;5.60;2.90;;;11.50;99.90;;;;;;5035954;28;20178;-85
2022/10/23 01:06:41;;;;;;;12.60;3.67;;;11.50;99.90;;;;;;5032743;28;20510;-85
2022/10/23 01:09:36;;;;;;;13.30;4.23;;;11.50;99.90;;;;;;5033105;28;20404;-84
2022/10/23 01:12:18;;;;;;;9.93;4.93;;;11.50;99.90;;;;;;5004206;28;20433;-86
2022/10/23 01:14:55;;;;;;;11.33;5.13;;;11.60;99.90;;;;;;5014669;28;20472;-85
2022/10/23 01:17:33;;;;;;;9.77;6.20;;;11.60;99.90;;;;;;5014601;28;20421;-85
2022/10/23 01:20:21;;;;;;;15.67;6.67;;;11.60;99.90;;;;;;5033175;28;20408;-85
2022/10/23 01:23:05;;;;;;;13.70;6.50;;;11.70;99.90;;;;;;5014523;28;20452;-85
2022/10/23 01:25:43;;;;;;;14.63;6.30;;;11.70;99.90;;;;;;5014467;28;20413;-85
2022/10/23 01:28:12;;;;;;;16.63;7.20;;;11.70;99.90;;;;;;5032703;28;20401;-86
2022/10/23 01:30:41;;;;;;;12.60;7.60;;;11.70;99.90;;;;;;5014601;28;20425;-84
2022/10/23 01:33:11;;;;;;;12.23;6.45;;;11.70;99.90;;;;;;5032304;28;20452;-84
2022/10/23 01:35:47;;;;;;;10.67;6.40;;;11.80;99.90;;;;;;5027415;28;20297;-84
2022/10/23 01:38:24;;;;;;;14.43;6.03;;;11.80;99.90;;;;;;5014233;28;20541;-85
2022/10/23 01:41:18;;;;;;;20.23;5.63;;;11.80;99.90;;;;;;5031459;28;20437;-86
2022/10/23 01:43:48;;;;;;;12.00;6.27;;;11.80;99.90;;;;;;5032681;28;20424;-85
2022/10/23 01:46:16;;;;;;;9.80;5.80;;;11.80;99.90;;;;;;5032261;28;20420;-85
2022/10/23 01:48:50;;;;;;;19.80;6.50;;;11.90;99.90;;;;;;5014726;28;20420;-85
2022/10/23 01:51:17;;;;;;;11.00;6.50;;;11.90;99.90;;;;;;5032596;28;20492;-85
2022/10/23 01:53:45;;;;;;;12.20;6.53;;;11.90;99.90;;;;;;5032387;28;20581;-85
2022/10/23 01:56:14;;;;;;;17.83;7.07;;;11.90;99.90;;;;;;5015086;28;20790;-83
2022/10/23 01:58:43;;;;;;;17.10;7.53;;;11.90;99.90;;;;;;5014231;28;20535;-85
2022/10/23 02:01:10;;;;;;;17.60;7.10;;;12.00;99.90;;;;;;5032498;28;20420;-85
2022/10/23 02:03:38;;;;;;;15.27;7.97;;;12.10;99.90;;;;;;5014373;28;20419;-84
2022/10/23 02:06:03;;;;;;;15.67;7.17;;;12.10;99.90;;;;;;5014722;28;20994;-85
2022/10/23 02:08:30;;;;;;;10.37;6.53;;;12.10;99.90;;;;;;5014567;28;20448;-85
2022/10/23 02:11:11;;;;;;;17.17;7.77;;;12.20;99.90;;;;;;5015519;28;20436;-84
2022/10/23 02:13:49;;;;;;;10.60;6.50;;;12.30;99.90;;;;;;5018207;28;20476;-85
2022/10/23 02:16:29;;;;;;;15.43;6.97;;;12.30;99.90;;;;;;5036233;28;20751;-84
2022/10/23 02:19:18;;;;;;;9.10;6.27;;;12.30;99.90;;;;;;5035804;28;20412;-84
2022/10/23 02:21:48;;;;;;;14.13;6.20;;;12.30;99.90;;;;;;5005565;28;20432;-84
2022/10/23 02:24:20;;;;;;;14.50;6.17;;;12.30;99.90;;;;;;5018163;28;20905;-84
2022/10/23 02:26:54;;;;;;;9.97;5.57;;;12.40;99.90;;;;;;5035662;28;20402;-84
2022/10/23 02:29:23;;;;;;;11.70;6.70;;;12.40;99.90;;;;;;5018124;28;20576;-83
2022/10/23 02:31:48;;;;;;;14.23;7.03;;;12.40;99.90;;;;;;5035402;28;20412;-85
2022/10/23 02:34:14;;;;;;;9.77;6.73;;;12.40;99.90;;;;;;5035286;28;20471;-85
2022/10/23 02:36:40;;;;;;;12.83;5.77;;;12.40;99.90;;;;;;5001198;28;20178;-85
2022/10/23 02:39:05;;;;;;;6.73;6.00;;;12.50;99.90;;;;;;5035270;28;20760;-85
2022/10/23 02:41:54;;;;;;;17.10;7.50;;;12.50;99.90;;;;;;5035448;28;20630;-84
2022/10/23 02:44:56;;;;;;;11.63;6.73;;;12.50;99.90;;;;;;5035734;28;20189;-84
2022/10/23 02:47:44;;;;;;;9.67;7.13;;;12.50;99.90;;;;;;5035303;28;20562;-82
2022/10/23 02:50:17;;;;;;;9.20;5.77;;;12.60;99.90;;;;;;5017695;28;20425;-84
2022/10/23 02:53:07;;;;;;;14.07;6.00;;;12.60;99.90;;;;;;5016991;28;20420;-83
2022/10/23 02:55:43;;;;;;;11.00;6.33;;;12.70;99.90;;;;;;5035023;28;20440;-83
2022/10/23 02:58:27;;;;;;;15.43;6.47;;;12.60;99.90;;;;;;5035480;28;20408;-84
2022/10/23 03:01:08;;;;;;;16.53;6.77;;;12.60;99.90;;;;;;5035129;28;20405;-83
2022/10/23 03:03:49;;;;;;;11.47;6.03;;;12.70;99.90;;;;;;5016899;28;20417;-84
2022/10/23 03:06:15;;;;;;;13.93;6.40;;;12.70;99.90;;;;;;5017241;28;20494;-84
2022/10/23 03:08:58;;;;;;;14.60;5.90;;;12.60;99.90;;;;;;5034729;28;20901;-84
2022/10/23 03:11:24;;;;;;;13.37;5.60;;;12.70;99.90;;;;;;5017140;28;20586;-80
2022/10/23 03:13:50;;;;;;;9.70;7.00;;;12.70;99.90;;;;;;5034928;28;20514;-83
2022/10/23 03:16:16;;;;;;;14.00;6.30;;;12.70;99.90;;;;;;5034568;28;20735;-83
2022/10/23 03:18:41;;;;;;;9.53;6.90;;;12.70;99.90;;;;;;5017049;28;20229;-83
2022/10/23 03:21:07;;;;;;;15.73;7.53;;;12.70;99.90;;;;;;5001120;28;20186;-83
2022/10/23 03:23:33;;;;;;;15.63;8.30;;;12.70;99.90;;;;;;5015922;28;20259;-83
2022/10/23 03:25:58;;;;;;;14.97;7.63;;;12.70;99.90;;;;;;5017102;28;20260;-83
2022/10/23 03:28:24;;;;;;;12.97;6.40;;;12.70;99.90;;;;;;5016932;28;20179;-83
2022/10/23 03:30:49;;;;;;;11.70;7.67;;;12.70;99.90;;;;;;5034696;28;20654;-84
2022/10/23 03:33:15;;;;;;;10.40;6.60;;;12.70;99.90;;;;;;5016911;28;20210;-84
2022/10/23 03:35:41;;;;;;;12.70;6.20;;;12.60;99.90;;;;;;5034471;28;20178;-83
2022/10/23 03:38:06;;;;;;;9.77;6.07;;;12.60;99.90;;;;;;5016708;28;20213;-83
2022/10/23 03:40:32;;;;;;;10.00;6.17;;;12.60;99.90;;;;;;5016559;28;20178;-83
2022/10/23 03:42:57;;;;;;;14.73;5.97;;;12.60;99.90;;;;;;5000097;28;20182;-83
2022/10/23 03:45:23;;;;;;;11.10;6.10;;;12.60;99.90;;;;;;5034630;28;20178;-83
2022/10/23 03:47:50;;;;;;;17.90;7.27;;;12.60;99.90;;;;;;5016512;28;20618;-83
2022/10/23 03:50:16;;;;;;;13.40;6.87;;;12.60;99.90;;;;;;5000697;28;20178;-83
2022/10/23 03:52:42;;;;;;;14.50;7.43;;;12.60;99.90;;;;;;5034027;28;20420;-83
2022/10/23 03:55:08;;;;;;;12.77;7.03;;;12.60;99.90;;;;;;5016477;28;20744;-84
2022/10/23 03:57:33;;;;;;;12.60;7.47;;;12.60;99.90;;;;;;5015869;28;20188;-83
2022/10/23 03:59:59;;;;;;;16.93;7.03;;;12.60;99.90;;;;;;4983583;28;20925;-83
2022/10/23 04:02:25;;;;;;;10.80;6.93;;;12.60;99.90;;;;;;4983773;28;20175;-84
2022/10/23 04:04:50;;;;;;;12.30;7.50;;;12.60;99.90;;;;;;5016079;28;20257;-83
2022/10/23 04:07:16;;;;;;;14.67;7.80;;;12.60;99.90;;;;;;5016431;28;20261;-83
2022/10/23 04:09:41;;;;;;;18.53;8.23;;;12.60;99.90;;;;;;5015991;28;20182;-84
2022/10/23 04:12:08;;;;;;;10.90;6.40;;;12.70;99.90;;;;;;5033695;28;20184;-84
2022/10/23 04:14:34;;;;;;;12.07;7.27;;;12.70;99.90;;;;;;5015892;28;20308;-83
2022/10/23 04:17:00;;;;;;;14.47;6.50;;;12.70;99.90;;;;;;5034043;28;20844;-84
2022/10/23 04:19:25;;;;;;;12.70;6.03;;;12.70;99.90;;;;;;5016127;28;20421;-84
2022/10/23 04:21:51;;;;;;;11.80;7.47;;;12.70;99.90;;;;;;5033422;28;20210;-84
2022/10/23 04:24:16;;;;;;;12.67;8.00;;;12.70;99.90;;;;;;5016276;28;20186;-84
2022/10/23 04:26:42;;;;;;;13.93;7.37;;;12.60;99.90;;;;;;5033069;28;20587;-84
2022/10/23 04:29:07;;;;;;;12.00;7.83;;;12.60;99.90;;;;;;5015665;28;20228;-84
2022/10/23 04:31:33;;;;;;;11.97;6.87;;;12.60;99.90;;;;;;4999246;28;20205;-84
2022/10/23 04:33:59;;;;;;;15.27;6.63;;;12.50;99.90;;;;;;4999130;28;20240;-84
2022/10/23 04:36:24;;;;;;;9.73;5.63;;;12.50;99.90;;;;;;5015727;28;20185;-84
2022/10/23 04:38:50;;;;;;;11.07;6.17;;;12.60;99.90;;;;;;5015163;28;20230;-84
2022/10/23 04:41:15;;;;;;;13.47;5.70;;;12.50;99.90;;;;;;5033490;28;20536;-83
2022/10/23 04:43:41;;;;;;;19.03;6.83;;;12.60;99.90;;;;;;4998993;28;20194;-83
2022/10/23 04:46:07;;;;;;;14.30;7.50;;;12.50;99.90;;;;;;4999355;28;20687;-84
2022/10/23 04:48:32;;;;;;;11.50;6.90;;;12.60;99.90;;;;;;5015654;28;20178;-83
2022/10/23 04:51:03;;;;;;;12.57;6.50;;;12.60;99.90;;;;;;5032931;28;20409;-84
2022/10/23 04:53:29;;;;;;;17.87;7.20;;;12.50;99.90;;;;;;5033071;28;20660;-84
2022/10/23 04:55:56;;;;;;;12.10;6.10;;;12.50;99.90;;;;;;5032743;28;20412;-84
2022/10/23 04:58:23;;;;;;;13.07;6.27;;;12.50;99.90;;;;;;5015297;28;20490;-84
2022/10/23 05:00:49;;;;;;;11.90;5.67;;;12.40;99.90;;;;;;5014842;28;20722;-84
2022/10/23 05:03:17;;;;;;;9.20;6.23;;;12.40;99.90;;;;;;4998940;28;20925;-84
2022/10/23 05:05:42;;;;;;;9.57;5.87;;;12.40;99.90;;;;;;5032551;28;20455;-85
2022/10/23 05:08:08;;;;;;;16.30;6.53;;;12.40;99.90;;;;;;5015428;28;20429;-85
2022/10/23 05:10:34;;;;;;;13.20;6.50;;;12.40;99.90;;;;;;5014758;28;20182;-84
2022/10/23 05:13:01;;;;;;;14.20;6.97;;;12.40;99.90;;;;;;5031815;28;20436;-84
2022/10/23 05:15:27;;;;;;;15.33;7.13;;;12.40;99.90;;;;;;4998819;28;20512;-84
2022/10/23 05:18:19;;;;;;;16.60;6.67;;;12.40;99.90;;;;;;4998568;28;20532;-84
2022/10/23 05:20:48;;;;;;;13.63;6.10;;;12.40;99.90;;;;;;5014770;28;20278;-84
2022/10/23 05:23:16;;;;;;;7.60;5.83;;;12.30;99.90;;;;;;5015521;28;20421;-84
2022/10/23 05:25:42;;;;;;;13.07;5.83;;;12.30;99.90;;;;;;4998442;28;20471;-84
2022/10/23 05:28:07;;;;;;;11.10;5.13;;;12.30;99.90;;;;;;4998929;28;20433;-84
2022/10/23 05:30:33;;;;;;;11.13;6.57;;;12.20;99.90;;;;;;5014813;28;20178;-84
2022/10/23 05:33:01;;;;;;;8.40;5.30;;;12.20;99.90;;;;;;5015029;28;20186;-85
2022/10/23 05:35:28;;;;;;;17.03;5.70;;;12.20;99.90;;;;;;4998878;28;20526;-85
2022/10/23 05:37:55;;;;;;;13.20;6.17;;;12.20;99.90;;;;;;5014702;28;20416;-85
2022/10/23 05:40:21;;;;;;;11.57;5.67;;;12.20;99.90;;;;;;5032740;28;20920;-86
2022/10/23 05:42:46;;;;;;;10.53;5.57;;;12.10;99.90;;;;;;4998631;28;20984;-85
2022/10/23 05:45:12;;;;;;;11.13;4.83;;;12.10;99.90;;;;;;4998895;28;20421;-84
2022/10/23 05:47:38;;;;;;;8.87;5.30;;;12.10;99.90;;;;;;5017962;28;20595;-85
2022/10/23 05:50:03;;;;;;;12.80;5.40;;;12.10;99.90;;;;;;5018777;28;20642;-85
2022/10/23 05:52:29;;;;;;;9.10;5.23;;;12.10;99.90;;;;;;5018957;28;20189;-84
2022/10/23 05:54:55;;;;;;;8.43;4.80;;;12.10;99.90;;;;;;5018583;28;20514;-84
2022/10/23 05:57:20;;;;;;;9.30;5.40;;;12.10;99.90;;;;;;5018489;28;20209;-85
2022/10/23 05:59:46;;;;;;;14.30;5.43;;;12.10;99.90;;;;;;5018432;28;20247;-85
2022/10/23 06:02:11;;;;;;;5.77;4.30;;;12.10;99.90;;;;;;5018603;28;20194;-84
2022/10/23 06:04:37;;;;;;;10.30;5.07;;;12.10;99.90;;;;;;5018571;28;20609;-83
2022/10/23 06:07:03;;;;;;;5.30;4.37;;;12.10;99.90;;;;;;5019239;28;20239;-84
2022/10/23 06:09:29;;;;;;;10.33;4.50;;;12.10;99.90;;;;;;5018980;28;20208;-86
2022/10/23 06:11:55;;;;;;;12.67;4.50;;;12.10;99.90;;;;;;5036836;28;20614;-84
2022/10/23 06:14:20;;;;;;;6.47;3.80;;;12.10;99.90;;;;;;5018562;28;20828;-85
2022/10/23 06:16:46;;;;;;;10.03;4.40;;;12.10;99.90;;;;;;5018105;28;20943;-84
2022/10/23 06:19:12;;;;;;;11.10;4.80;;;12.10;99.90;;;;;;5036148;28;20183;-85
2022/10/23 06:21:39;;;;;;;7.20;4.43;;;12.10;99.90;;;;;;5035770;28;20171;-84
2022/10/23 06:24:06;;;;;;;7.93;4.27;;;12.10;99.90;;;;;;5002063;28;20808;-84
2022/10/23 06:26:32;;;;;;;14.90;4.37;;;12.10;99.90;;;;;;5018017;28;20421;-84
2022/10/23 06:28:58;;;;;;;8.50;3.60;;;12.10;99.90;;;;;;5017939;28;20416;-85
2022/10/23 06:31:25;;;;;;;5.93;4.03;;;12.20;99.90;;;;;;5001626;28;20435;-85
2022/10/23 06:33:51;;;;;;;7.90;3.80;;;12.20;99.90;;;;;;5017749;28;20492;-84
2022/10/23 06:36:17;;;;;;;9.43;3.97;;;12.20;99.90;;;;;;5001564;28;20470;-84
2022/10/23 06:38:43;;;;;;;6.00;4.03;;;12.20;99.90;;;;;;5001239;28;20823;-84
2022/10/23 06:41:17;;;;;;;6.83;3.90;;;12.20;99.90;;;;;;5035525;28;20198;-85
2022/10/23 06:43:42;;;;;;;5.40;3.87;;;12.30;99.90;;;;;;5035219;28;20182;-84
2022/10/23 06:46:09;;;;;;;6.23;3.80;;;12.30;99.90;;;;;;5035233;28;20932;-84
2022/10/23 06:48:34;;;;;;;8.90;4.60;;;12.40;99.90;;;;;;5035408;28;20528;-84
2022/10/23 06:51:05;;;;;;;6.00;3.90;;;12.40;99.90;;;;;;5017637;28;20413;-84
2022/10/23 06:53:31;;;;;;;9.90;3.90;;;12.40;99.90;;;;;;5035630;28;20554;-84
2022/10/23 06:56:02;;;;;;;7.30;3.87;;;12.40;99.90;;;;;;5001079;28;20421;-84
2022/10/23 06:58:28;;;;;;;12.30;4.17;;;12.50;99.90;;;;;;5001532;28;20425;-84
2022/10/23 07:00:54;;;;;;;7.93;3.93;;;12.50;99.90;;;;;;5035294;28;20401;-84
2022/10/23 07:03:20;;;;;;;6.40;4.13;;;12.60;99.90;;;;;;5017953;28;20599;-84
2022/10/23 07:05:48;;;;;;;10.57;4.93;;;12.60;99.90;;;;;;5001220;28;20424;-84
2022/10/23 07:08:14;;;;;;;8.20;4.27;;;12.60;99.90;;;;;;5035424;28;20423;-84
2022/10/23 07:10:42;;;;;;;8.53;4.17;;;12.60;99.90;;;;;;5034925;28;20795;-83
2022/10/23 07:13:09;;;;;;;6.10;3.77;;;12.70;99.90;;;;;;5035580;28;20296;-83
2022/10/23 07:15:35;;;;;;;9.53;4.40;;;12.70;99.90;;;;;;5035373;28;20501;-84
2022/10/23 07:18:01;;;;;;;9.40;3.47;;;12.70;99.90;;;;;;5017533;28;20456;-84
2022/10/23 07:20:27;;;;;;;5.93;3.60;;;12.70;99.90;;;;;;5017753;28;20437;-83
2022/10/23 07:22:53;;;;;;;5.97;3.33;;;12.70;99.90;;;;;;5001286;28;21016;-83
2022/10/23 07:25:21;;;;;;;5.37;3.70;;;12.70;99.90;;;;;;5035349;28;20293;-83
2022/10/23 07:27:46;;;;;;;8.10;3.50;;;12.80;99.90;;;;;;5035151;28;20467;-83
2022/10/23 07:30:13;;;;;;;8.73;3.80;;;12.80;99.90;;;;;;5017174;28;20937;-83
2022/10/23 07:32:38;;;;;;;7.20;3.47;;;12.90;99.90;;;;;;5001345;28;20421;-83
2022/10/23 07:35:05;;;;;;;8.97;4.47;;;12.90;99.90;;;;;;5035018;28;20972;-83
2022/10/23 07:37:30;;;;;;;7.77;4.40;;;12.90;99.90;;;;;;5017281;28;20174;-83
2022/10/23 07:39:56;;;;;;;7.80;4.27;;;13.00;99.90;;;;;;5000235;28;20598;-83
2022/10/23 07:42:22;;;;;;;5.50;3.60;;;13.00;99.90;;;;;;5017382;28;20185;-79
2022/10/23 07:44:47;;;;;;;8.57;4.10;;;13.10;99.90;;;;;;5034582;28;20335;-86
2022/10/23 07:47:13;;;;;;;7.77;3.77;;;13.20;99.90;;;;;;5001036;28;20185;-86
2022/10/23 07:49:38;;;;;;;4.93;3.13;;;13.20;99.90;;;;;;5000777;28;20221;-86
2022/10/23 07:52:05;;;;;;;11.67;3.93;;;13.30;99.90;;;;;;5034701;28;20205;-85
2022/10/23 07:54:30;;;;;;;6.60;3.80;;;13.30;99.90;;;;;;5017022;28;20289;-85
2022/10/23 07:56:58;;;;;;;6.20;4.20;;;13.40;99.90;;;;;;5034231;28;20498;-89
2022/10/23 07:59:24;;;;;;;8.87;3.50;;;13.50;99.90;;;;;;5034745;28;20837;-89
2022/10/23 08:01:50;;;;;;;8.33;4.00;;;13.60;99.90;;;;;;4984355;28;20457;-88
2022/10/23 08:04:16;;;;;;;9.33;4.40;;;13.70;99.90;;;;;;5017161;28;20272;-88
2022/10/23 08:06:41;;;;;;;6.27;3.40;;;13.80;99.90;;;;;;5016931;28;20555;-88
2022/10/23 08:09:07;;;;;;;7.87;3.47;;;14.00;99.90;;;;;;5016379;28;20185;-88
2022/10/23 08:11:34;;;;;;;12.80;4.27;;;14.10;99.90;;;;;;5016775;28;20186;-84
2022/10/23 08:14:03;;;;;;;8.40;3.60;;;14.20;99.90;;;;;;5033520;28;20214;-84
2022/10/23 08:16:31;;;;;;;8.67;4.50;;;14.30;99.90;;;;;;5017366;28;20417;-83
2022/10/23 08:18:57;;;;;;;10.10;4.03;;;14.40;99.90;;;;;;5016136;28;20417;-83
2022/10/23 08:21:22;;;;;;;5.77;3.80;;;14.50;99.90;;;;;;5034465;28;20520;-84
2022/10/23 08:23:48;;;;;;;8.20;4.10;;;14.70;99.90;;;;;;5016492;28;20511;-83
2022/10/23 08:26:14;;;;;;;8.73;3.70;;;14.70;99.90;;;;;;5034208;28;20220;-83
2022/10/23 08:28:40;;;;;;;9.53;3.97;;;14.80;99.90;;;;;;5034209;28;20776;-82
2022/10/23 08:31:11;;;;;;;6.67;3.87;;;14.90;99.90;;;;;;5033900;28;20563;-83
2022/10/23 08:33:37;;;;;;;7.00;3.90;;;15.00;99.90;;;;;;5034474;28;20206;-83
2022/10/23 08:36:03;;;;;;;9.37;3.63;;;15.00;99.90;;;;;;4999832;28;20580;-83
2022/10/23 08:38:29;;;;;;;10.40;4.27;;;15.10;99.90;;;;;;5016555;28;20491;-82
2022/10/23 08:40:55;;;;;;;4.70;3.37;;;15.20;99.90;;;;;;4999913;28;20429;-82
2022/10/23 08:43:42;;;;;;;9.10;3.40;;;15.30;99.90;;;;;;5000253;28;20424;-82
2022/10/23 08:46:14;;;;;;;8.57;2.90;;;15.40;99.90;;;;;;5033688;28;20249;-83
2022/10/23 08:48:52;;;;;;;8.57;2.93;;;15.60;99.90;;;;;;5016466;28;20419;-83
2022/10/23 08:51:27;;;;;;;7.90;3.10;;;15.70;99.90;;;;;;5033488;28;20764;-83
2022/10/23 08:54:21;;;;;;;11.13;3.30;;;15.90;99.90;;;;;;5033481;28;20496;-83
2022/10/23 08:56:57;;;;;;;6.17;3.20;;;16.00;99.90;;;;;;5034791;28;20400;-95
2022/10/23 08:59:42;;;;;;;5.67;3.37;;;16.00;99.90;;;;;;5029267;28;20422;-96
2022/10/23 09:02:18;;;;;;;11.50;3.40;;;16.10;99.90;;;;;;5029170;28;20421;-96
2022/10/23 09:04:46;;;;;;;11.13;3.50;;;16.30;99.90;;;;;;5026074;28;20425;-96
2022/10/23 09:07:28;;;;;;;11.70;2.80;;;16.40;99.90;;;;;;5025178;28;20408;-95
2022/10/23 09:10:38;;;;;;;9.20;3.20;;;16.60;99.90;;;;;;5041267;28;20391;-95
2022/10/23 09:13:45;;;;;;;8.30;3.27;;;16.80;99.90;;;;;;5012790;28;20400;-96
2022/10/23 09:16:43;;;;;;;6.03;2.73;;;17.10;99.90;;;;;;5024639;28;20425;-96
2022/10/23 09:19:18;;;;;;;5.90;2.53;;;17.40;99.90;;;;;;5026351;28;20429;-95
2022/10/23 09:21:49;;;;;;;4.70;2.40;;;17.50;99.90;;;;;;5027257;28;20911;-96
2022/10/23 09:24:19;;;;;;;3.87;2.47;;;17.50;99.90;;;;;;5047302;28;20383;-96
2022/10/23 09:26:48;;;;;;;5.80;2.40;;;17.70;99.90;;;;;;5029006;28;20416;-96
2022/10/23 09:29:43;;;;;;;4.47;2.70;;;17.70;99.90;;;;;;5029662;28;20423;-95
2022/10/23 09:32:09;;;;;;;6.97;2.27;;;17.60;99.90;;;;;;5029429;28;20429;-96
2022/10/23 09:34:34;;;;;;;7.37;2.93;;;17.90;99.90;;;;;;5025135;28;20465;-95
2022/10/23 09:37:22;;;;;;;5.13;2.47;;;18.10;99.90;;;;;;5027809;28;20184;-96
2022/10/23 09:39:48;;;;;;;9.63;2.83;;;18.20;99.90;;;;;;5028100;28;20229;-94
2022/10/23 09:42:23;;;;;;;8.20;2.80;;;18.20;99.90;;;;;;5031145;28;20421;-95
2022/10/23 09:44:51;;;;;;;3.70;2.50;;;18.30;99.90;;;;;;5024312;28;20486;-93
2022/10/23 09:47:23;;;;;;;8.50;2.70;;;18.20;99.90;;;;;;5025205;28;20464;-95
2022/10/23 09:49:51;;;;;;;6.20;2.13;;;18.30;99.90;;;;;;5023644;28;20440;-94
2022/10/23 09:52:17;;;;;;;6.30;3.40;;;18.30;99.90;;;;;;5020319;28;20417;-85
2022/10/23 09:54:49;;;;;;;8.90;2.73;;;18.40;99.90;;;;;;5037083;28;20950;-88
2022/10/23 09:57:39;;;;;;;6.37;2.00;;;18.30;99.90;;;;;;5019443;28;20178;-87
2022/10/23 10:00:18;;;;;;;7.63;2.50;;;18.30;99.90;;;;;;5019075;28;20474;-87
2022/10/23 10:02:56;;;;;;;4.30;2.27;;;18.30;99.90;;;;;;5035842;28;20496;-87
2022/10/23 10:05:27;;;;;;;4.63;2.33;;;18.30;99.90;;;;;;5019073;28;20420;-85
2022/10/23 10:08:31;;;;;;;7.47;2.00;;;18.30;99.90;;;;;;5036337;28;20379;-85
2022/10/23 10:10:59;;;;;;;3.80;2.70;;;18.40;99.90;;;;;;5018352;28;20439;-85
2022/10/23 10:13:38;;;;;;;4.43;2.30;;;18.40;99.90;;;;;;5018671;28;20975;-86
2022/10/23 10:16:39;;;;;;;3.13;2.10;;;18.40;99.90;;;;;;5018502;28;20403;-85
2022/10/23 10:19:25;;;;;;;6.00;2.30;;;18.50;99.90;;;;;;5001675;28;20425;-85
2022/10/23 10:22:21;;;;;;;5.53;2.13;;;18.60;99.90;;;;;;5018116;28;20486;-86
2022/10/23 10:25:02;;;;;;;7.33;2.20;;;18.50;99.90;;;;;;4998749;28;20988;-85
2022/10/23 10:28:02;;;;;;;5.00;2.30;;;18.50;99.90;;;;;;5016687;28;20408;-85
2022/10/23 10:30:41;;;;;;;3.67;2.50;;;18.50;99.90;;;;;;4998833;28;20418;-85
2022/10/23 10:34:00;;;;;;;5.80;2.30;;;18.50;99.90;;;;;;5015746;28;20390;-85
2022/10/23 10:36:39;;;;;;;5.77;2.30;;;18.40;99.90;;;;;;4992776;28;20417;-85
2022/10/23 10:39:23;;;;;;;6.00;2.77;;;18.40;99.90;;;;;;4998514;28;20448;-86
2022/10/23 10:42:01;;;;;;;6.90;2.53;;;18.40;99.90;;;;;;5024539;28;20924;-86
2022/10/23 10:45:04;;;;;;;4.00;2.00;;;18.40;99.90;;;;;;5013682;28;20399;-86
2022/10/23 10:47:40;;;;;;;3.33;1.97;;;18.40;99.90;;;;;;5013960;28;20974;-86
2022/10/23 10:50:18;;;;;;;6.43;2.50;;;18.40;99.90;;;;;;5034542;28;20391;-87
2022/10/23 10:53:18;;;;;;;6.67;2.60;;;18.40;99.90;;;;;;5018345;28;20419;-86
2022/10/23 10:55:49;;;;;;;3.17;2.37;;;18.40;99.90;;;;;;5018067;28;20455;-88
2022/10/23 10:58:20;;;;;;;4.40;1.97;;;18.30;99.90;;;;;;5017932;28;20442;-87
2022/10/23 11:00:53;;;;;;;3.50;2.27;;;18.30;99.90;;;;;;5034625;28;20448;-86
2022/10/23 11:03:39;;;;;;;5.60;2.60;;;18.40;99.90;;;;;;5017813;28;20396;-84
2022/10/23 11:06:13;;;;;;;4.40;1.80;;;18.30;99.90;;;;;;5017387;28;20453;-83
2022/10/23 11:08:40;;;;;;;4.67;2.30;;;18.20;99.90;;;;;;5035288;28;20409;-83
2022/10/23 11:11:10;;;;;;;4.13;1.90;;;18.10;99.90;;;;;;5034029;28;20438;-84
2022/10/23 11:13:39;;;;;;;3.83;2.10;;;18.00;99.90;;;;;;5034323;28;20467;-86
2022/10/23 11:16:24;;;;;;;3.83;2.00;;;17.90;99.90;;;;;;5035117;28;20770;-85
2022/10/23 11:19:05;;;;;;;7.53;2.00;;;17.70;99.90;;;;;;5034177;28;20460;-86
2022/10/23 11:21:38;;;;;;;3.70;1.90;;;17.70;99.90;;;;;;5018095;28;20417;-89
2022/10/23 11:24:39;;;;;;;3.77;1.43;;;17.60;99.90;;;;;;5018201;28;20429;-92
2022/10/23 11:27:30;;;;;;;3.80;2.17;;;17.60;99.90;;;;;;5034635;28;20417;-91
2022/10/23 11:30:26;;;;;;;5.13;2.00;;;17.60;99.90;;;;;;4997785;28;20936;-90
2022/10/23 11:33:29;;;;;;;2.93;1.83;;;17.60;99.90;;;;;;5017652;28;20429;-89
2022/10/23 11:36:05;;;;;;;3.13;1.80;;;17.80;99.90;;;;;;5017126;28;20919;-89
2022/10/23 11:38:37;;;;;;;6.00;2.10;;;18.20;99.90;;;;;;5017218;28;20472;-83
2022/10/23 11:41:20;;;;;;;2.57;1.47;;;18.50;99.90;;;;;;5017115;28;20846;-89
2022/10/23 11:44:03;;;;;;;2.87;2.20;;;18.90;99.90;;;;;;5034265;28;20398;-90
2022/10/23 11:46:34;;;;;;;3.83;2.17;;;19.10;99.90;;;;;;5017199;28;20428;-81
2022/10/23 11:49:01;;;;;;;4.20;2.50;;;19.40;99.90;;;;;;5035228;28;20397;-79
2022/10/23 11:51:40;;;;;;;4.43;2.00;;;19.80;99.90;;;;;;5001338;28;20490;-81
2022/10/23 11:54:09;;;;;;;5.20;1.70;;;20.00;99.90;;;;;;5000505;28;20500;-81
2022/10/23 11:56:35;;;;;;;6.17;1.63;;;20.30;99.90;;;;;;5033606;28;20445;-82
2022/10/23 11:59:29;;;;;;;3.67;1.30;;;20.40;99.90;;;;;;5033347;28;20506;-81
2022/10/23 12:02:02;;;;;;;3.13;1.60;;;20.40;99.90;;;;;;5033510;28;20516;-82
2022/10/23 12:04:39;;;;;;;5.20;1.53;;;20.60;99.90;;;;;;5034632;28;20455;-82
2022/10/23 12:07:20;;;;;;;1.33;1.23;;;20.60;99.90;;;;;;5034670;28;20384;-83
2022/10/23 12:09:52;;;;;;;2.87;1.47;;;20.70;99.90;;;;;;5034848;28;20767;-82
2022/10/23 12:12:33;;;;;;;3.90;1.63;;;20.70;99.90;;;;;;5033140;28;20974;-82
2022/10/23 12:15:10;;;;;;;5.27;1.50;;;20.90;99.90;;;;;;5034209;28;20450;-84
2022/10/23 12:17:41;;;;;;;4.40;1.63;;;20.80;99.90;;;;;;5034673;28;20467;-83
2022/10/23 12:20:07;;;;;;;9.13;2.23;;;21.10;99.90;;;;;;5034553;28;20413;-81
2022/10/23 12:22:46;;;;;;;1.73;1.33;;;21.00;99.90;;;;;;5033983;28;20777;-81
2022/10/23 12:25:20;;;;;;;4.53;1.90;;;21.00;99.90;;;;;;5016549;28;20573;-81
2022/10/23 12:27:49;;;;;;;3.70;1.67;;;20.90;99.90;;;;;;5033377;28;20424;-81
2022/10/23 12:30:22;;;;;;;2.10;1.27;;;20.80;99.90;;;;;;5032843;28;20723;-80
2022/10/23 12:33:24;;;;;;;2.30;1.50;;;20.80;99.90;;;;;;5033860;28;20432;-81
2022/10/23 12:36:32;;;;;;;4.40;2.03;;;20.60;99.90;;;;;;5033425;28;20407;-80
2022/10/23 12:38:57;;;;;;;4.87;1.80;;;20.40;99.90;;;;;;5005056;28;20537;-84
2022/10/23 12:41:41;;;;;;;4.00;1.57;;;20.40;99.90;;;;;;5001586;28;20448;-91
2022/10/23 12:44:11;;;;;;;2.30;1.73;;;20.30;99.90;;;;;;5017694;28;20186;-85
2022/10/23 12:46:45;;;;;;;2.17;1.70;;;20.30;99.90;;;;;;5019098;28;20860;-92
2022/10/23 12:49:37;;;;;;;2.77;1.97;;;20.20;99.90;;;;;;5018309;28;20737;-92
2022/10/23 12:52:15;;;;;;;4.70;1.80;;;20.20;99.90;;;;;;5015056;28;20525;-90
2022/10/23 12:54:41;;;;;;;9.93;1.90;;;20.20;99.90;;;;;;5017945;28;20484;-89
2022/10/23 12:57:25;;;;;;;1.90;1.60;;;20.10;99.90;;;;;;5015403;28;20431;-91
2022/10/23 12:59:56;;;;;;;7.83;2.00;;;20.00;99.90;;;;;;5019039;28;20189;-92
2022/10/23 13:02:27;;;;;;;4.20;2.00;;;20.10;99.90;;;;;;5018051;28;20881;-93
2022/10/23 13:04:56;;;;;;;6.13;1.77;;;20.10;99.90;;;;;;5017637;28;20947;-91
2022/10/23 13:07:27;;;;;;;3.23;1.90;;;20.00;99.90;;;;;;5032993;28;20417;-89